Flight Track Log - Related Links

Times and Time Zones

All times are in EDT time to prevent confusion due to time zone crossing. See the CTL18 flight status page for this flight to view local times or setup timezone preferences in your user account.

Time Position Orientation Groundspeed Altitude Reporting Facility
EDT Latitude Longitude Course Direction KTS MPH feet Rate Location/Type
Mon 07:52:00 PM 43.3904 -84.0180 160° South  Level Estimated
Mon 07:53:00 PM 43.3637 -83.9994 153° Southeast  Level FlightAware
Mon 07:54:00 PM 43.3371 -83.9809 153° Southeast  Level FlightAware
Mon 07:55:00 PM 43.3085 -83.9689 160° South  Level Estimated
Mon 07:56:00 PM 43.2809 -83.9532 157° South  Level FlightAware
Mon 07:57:00 PM 43.2533 -83.9375 157° South  Level FlightAware
Mon 07:58:00 PM 43.2246 -83.9258 163° South  Level Estimated
Mon 07:59:00 PM 43.1964 -83.9124 161° South  Level FlightAware
Mon 08:00:00 PM 43.1682 -83.8990 161° South  Level FlightAware
Mon 08:00:18 PM 42.9597 -83.7864 165° South 185 213 5,000  Level Cleveland Center
Mon 08:01:00 PM 43.1399 -83.8856 161° South  Level FlightAware
Mon 08:01:19 PM 42.9100 -83.7694 166° South 184 212 5,000  Level Cleveland Center
Mon 08:02:00 PM 43.1113 -83.8741 160° South  Level Estimated
Mon 08:02:20 PM 42.8628 -83.7472 161° South 183 211 5,100  Level Cleveland Center
Mon 08:03:00 PM 43.0832 -83.8599 160° South  Level FlightAware
Mon 08:03:21 PM 42.8092 -83.7306 167° South 183 211 5,000  Level Cleveland Center
Mon 08:04:00 PM 43.0552 -83.8456 160° South  Level FlightAware
Mon 08:04:28 PM 42.7575 -83.7108 164° South 179 206 5,000  Level Cleveland Center
Mon 08:05:29 PM 42.7078 -83.7000 171° South 180 207 5,000 -155 Level Cleveland Center
Mon 08:06:24 PM 42.6603 -83.6861 168° South 182 209 4,700 -259 Descending Cleveland Center
Mon 08:07:25 PM 42.6086 -83.6694 167° South 185 213 4,500 -195 Descending Cleveland Center
Mon 08:08:27 PM 42.5589 -83.6558 169° South 184 212 4,300 -146 Descending Cleveland Center
Mon 08:09:28 PM 42.5111 -83.6422 168° South 182 209 4,200 -141 Descending Cleveland Center
Mon 08:10:35 PM 42.4514 -83.6225 166° South 184 212 4,000 -422 Descending Cleveland Center
Mon 08:11:36 PM 42.3997 -83.6058 167° South 196 226 3,300 -621 Descending Cleveland Center
Mon 08:12:31 PM 42.3519 -83.5925 168° South 192 221 2,800 -462 Descending Cleveland Center
Mon 08:13:33 PM 42.3022 -83.5789 169° South 178 205 2,400 -605 Descending Cleveland Center
Mon 08:14:40 PM 42.2483 -83.5678 171° South 169 194 1,500 -806 Descending Cleveland Center
Mon 08:16:00 PM 42.2393 -83.5310 160° South  Level Estimated
Mon 08:23:00 PM 42.2393 -83.5310 160° South  Level Estimated
Mon 08:24:00 PM 42.2393 -83.5310 160° South  Level Estimated

Login

Don't have an account? Register now (free) for customized features, flight alerts, and more!